Latest Coastal Weather Observations for Bunbury

IDW60701

Issued at 12:15 am WST Sunday 31 August 2014 (issued every 10 minutes, with the page automatically refreshed every 10 minutes)

About coastal observations | Map of coastal stations | Coastal observations for WA | Marine services | Other Formats
Station Details ID: 009965 Name: BUNBURY Lat: -33.36 Lon: 115.64 Height: 5.2 m
Data from the previous 72 hours. | See also: Recent months at Bunbury
Date/Time
WST
Temp

°C
Wind Pressure Rain
since 9am
mm
Weather Cloud Vis
km
Sea
Height
m
Swell
Dir
 
Speed
knots
Gust
knots
hPa Trend Height
m
Period
s
Dir
31/12:00am 11.7 SSW 0 0 1017.9 - 0.0 - - - - - - -
 
Date/Time
WST
Temp

°C
Wind Pressure Rain
since 9am
mm
Weather Cloud Vis
km
Sea
Height
m
Swell
Dir
 
Speed
knots
Gust
knots
hPa Trend Height
m
Period
s
Dir
30/11:30pm 11.7 S 3 4 1018.3 - 0.0 - - - - - - -
30/11:00pm 11.8 SSE 1 2 1018.3 - 0.0 - - - - - - -
30/10:30pm 11.9 S 1 2 1018.2 - 0.0 - - - - - - -
30/10:00pm 11.7 S 3 4 1018.5 - 0.0 - - - - - - -
30/09:30pm 11.8 S 2 3 1018.3 - 0.0 - - - - - - -
30/09:00pm 11.7 S 1 3 1018.2 - 0.0 - - - - - - -
30/08:30pm 11.8 SE 1 2 1018.1 - 0.0 - - - - - - -
30/08:00pm 12.5 S 2 3 1018.2 - 0.0 - - - - - - -
30/07:30pm 12.6 S 3 3 1017.8 - 0.0 - - - - - - -
30/07:00pm 13.0 SSW 3 4 1018.1 - 0.0 - - - - - - -
30/06:30pm 13.4 SW 2 4 1017.7 - 0.0 - - - - - - -
30/06:00pm 13.2 SSE 2 3 1016.9 - 0.0 - - - - - - -
30/05:30pm 13.6 SSE 3 5 1017.1 - 0.0 - - - - - - -
30/05:00pm 14.0 SSW 5 6 1016.8 - 0.0 - - - - - - -
30/04:30pm 14.1 SSW 6 8 1016.6 - 0.0 - - - - - - -
30/04:00pm 14.7 SW 7 11 1016.6 - 0.0 - - - - - - -
30/03:30pm 15.5 WSW 6 9 1016.2 - 0.0 - - - - - - -
30/03:00pm 16.2 WSW 5 8 1015.9 - 0.0 - - - - - - -
30/02:30pm 17.9 WSW 5 7 1015.7 - 0.0 - - - - - - -
30/02:00pm 17.2 SW 5 8 1016.0 - 0.0 - - - - - - -
30/01:30pm 16.6 WSW 4 8 1015.8 - 0.0 - - - - - - -
30/01:00pm 16.4 S 4 6 1015.7 - 0.0 - - - - - - -
30/12:30pm 16.4 S 6 8 1016.1 - 0.0 - - - - - - -
30/12:00pm 15.9 SSW 7 11 1016.2 - 0.0 - - - - - - -
30/11:30am 16.0 S 7 9 1016.4 - 0.0 - - - - - - -
30/11:00am 16.8 S 7 9 1016.4 - 0.0 - - - - - - -
30/10:30am 15.8 S 6 10 1016.5 - 0.0 - - - - - - -
30/10:00am 15.5 S 4 8 1016.6 - 0.0 - - - - - - -
30/09:30am 15.2 S 4 6 1016.4 - 0.0 - - - - - - -
30/09:00am 14.4 S 5 9 1016.1 - 27.2 - - - - - - -
30/08:30am 14.3 S 5 8 1015.8 - 27.2 - - - - - - -
30/08:00am 14.0 S 4 6 1015.5 - 27.2 - - - - - - -
30/07:30am 13.4 SSW 3 4 1015.1 - 27.2 - - - - - - -
30/07:00am 13.2 SSW 4 5 1014.6 - 27.2 - - - - - - -
30/06:30am 13.0 SSW 3 5 1014.1 - 27.2 - - - - - - -
30/06:00am 13.4 SSW 2 4 1013.9 - 27.2 Recent precip. - - - - - -
30/05:30am 13.6 SSW 6 10 1013.7 - 27.2 - - - - - - -
30/05:00am 13.4 SSW 7 13 1013.1 - 27.0 - - - - - - -
30/04:30am 13.7 CALM 0 0 1012.7 - 26.0 - - - - - - -
30/04:00am 13.7 CALM 0 0 1012.6 - 26.0 - - - - - - -
30/03:30am 13.7 S 1 2 1012.6 - 26.0 - - - - - - -
30/03:00am 13.8 S 2 5 1012.4 - 26.0 Recent precip. - - - - - -
30/02:30am 14.0 S 2 4 1012.4 - 25.6 - - - - - - -
30/02:00am 13.6 E 1 2 1012.4 - 25.6 - - - - - - -
30/01:30am 13.9 SE 3 4 1012.2 - 25.6 - - - - - - -
30/01:00am 14.4 SW 2 4 1012.4 - 25.6 - - - - - - -
30/12:30am 14.9 WSW 5 8 1012.3 - 24.8 - - - - - - -
30/12:00am 15.5 WNW 2 4 1012.1 - 23.8 - - - - - - -
 
Date/Time
WST
Temp

°C
Wind Pressure Rain
since 9am
mm
Weather Cloud Vis
km
Sea
Height
m
Swell
Dir
 
Speed
knots
Gust
knots
hPa Trend Height
m
Period
s
Dir
29/11:30pm 15.6 NW 4 7 1012.1 - 23.8 - - - - - - -
29/11:00pm 15.4 NW 5 8 1012.5 - 23.8 - - - - - - -
29/10:30pm 15.1 NW 3 5 1012.4 - 23.8 - - - - - - -
29/10:00pm 15.1 NW 2 4 1012.6 - 23.8 - - - - - - -
29/09:30pm 15.2 WNW 6 9 1012.6 - 23.6 - - - - - - -
29/09:00pm 15.6 NW 6 9 1012.9 - 22.8 Rain - - - - - -
29/08:30pm 15.5 WNW 5 8 1012.7 - 22.2 - - - - - - -
29/08:00pm 15.7 WNW 6 9 1013.1 - 21.8 - - - - - - -
29/07:30pm 15.8 WNW 6 10 1012.9 - 21.2 - - - - - - -
29/07:00pm 15.8 NW 2 4 1012.4 - 20.6 - - - - - - -
29/06:30pm 15.7 N 3 3 1011.8 - 20.6 - - - - - - -
29/06:00pm 15.7 WNW 2 3 1011.9 - 19.8 Rain - - - - - -
29/05:30pm 16.0 WNW 4 6 1011.9 - 19.4 - - - - - - -
29/05:00pm 16.1 NNW 4 6 1011.4 - 19.0 - - - - - - -
29/04:30pm 16.1 NNW 4 6 1011.2 - 19.0 - - - - - - -
29/04:00pm 16.0 W 4 7 1011.2 - 19.0 - - - - - - -
29/03:30pm 15.8 NW 4 5 1011.4 - 18.6 - - - - - - -
29/03:00pm 15.6 WNW 4 6 1011.4 - 17.8 Rain - - - - - -
29/02:30pm 15.6 W 6 10 1011.5 - 15.6 - - - - - - -
29/02:00pm 15.9 W 11 17 1011.6 - 15.2 - - - - - - -
29/01:30pm 16.4 NW 11 16 1011.1 - 12.8 - - - - - - -
29/01:00pm 19.1 NW 10 15 1010.9 - 12.4 - - - - - - -
29/12:30pm 16.7 NW 7 13 1011.3 - 9.2 - - - - - - -
29/12:00pm 17.5 N 5 8 1011.4 - 7.6 Recent precip. - - - - - -
29/11:30am 16.6 NW 4 5 1011.6 - 7.4 - - - - - - -
29/11:00am 15.7 NW 5 8 1011.7 - 7.2 - - - - - - -
29/10:30am 15.7 WNW 8 15 1012.2 - 5.2 - - - - - - -
29/10:00am 15.8 NW 4 9 1012.0 - 2.8 - - - - - - -
29/09:30am 15.8 W 6 10 1012.1 - 1.6 - - - - - - -
29/09:00am 15.3 W 10 19 1012.4 - 20.0 Rain - - - - - -
29/08:30am 16.9 W 9 13 1011.7 - 16.8 - - - - - - -
29/08:00am 16.2 WNW 8 14 1011.2 - 16.4 - - - - - - -
29/07:30am 15.7 WNW 11 13 1010.7 - 16.0 - - - - - - -
29/07:00am 17.2 NW 8 12 1010.5 - 7.6 - - - - - - -
29/06:30am 16.8 NNW 9 14 1010.4 - 7.6 - - - - - - -
29/06:00am 16.6 NNW 9 15 1010.3 - 7.6 Recent precip. - - - - - -
29/05:30am 16.4 NNW 8 14 1010.4 - 7.6 - - - - - - -
29/05:00am 16.7 NW 8 13 1010.6 - 7.4 - - - - - - -
29/04:30am 16.5 NW 10 14 1010.2 - 7.2 - - - - - - -
29/04:00am 16.8 WNW 12 20 1010.1 - 5.6 - - - - - - -
29/03:30am 18.6 NNW 11 16 1009.9 - 2.2 - - - - - - -
29/03:00am 18.5 NW 11 18 1010.3 - 2.2 - - - - - - -
29/02:30am 18.8 NNW 13 23 1010.5 - 2.2 - - - - - - -
29/02:00am 18.7 NNW 15 22 1010.8 - 2.2 - - - - - - -
29/01:30am 18.5 NNW 13 21 1010.9 - 2.2 - - - - - - -
29/01:00am 18.3 NNW 11 16 1011.2 - 2.0 - - - - - - -
29/12:30am 18.3 NNW 11 16 1011.4 - 1.6 - - - - - - -
29/12:00am 18.4 NNW 11 17 1011.8 - 1.4 Recent precip. - - - - - -
 
Date/Time
WST
Temp

°C
Wind Pressure Rain
since 9am
mm
Weather Cloud Vis
km
Sea
Height
m
Swell
Dir
 
Speed
knots
Gust
knots
hPa Trend Height
m
Period
s
Dir
28/11:30pm 18.2 NNW 12 18 1011.7 - 0.8 - - - - - - -
28/11:00pm 18.9 NNW 11 19 1012.4 - 0.0 - - - - - - -
28/10:30pm 19.0 N 13 21 1012.2 - 0.0 - - - - - - -
28/10:00pm 19.0 NNW 13 20 1012.7 - 0.0 - - - - - - -
28/09:30pm 19.0 NNW 13 21 1012.7 - 0.0 - - - - - - -
28/09:00pm 19.0 NNW 12 20 1013.1 - 0.0 - - - - - - -
28/08:30pm 18.8 NNW 12 18 1013.3 - 0.0 - - - - - - -
28/08:00pm 18.8 NNW 11 15 1013.2 - 0.0 - - - - - - -
28/07:30pm 18.7 NNW 12 18 1013.2 - 0.0 - - - - - - -
28/07:00pm 18.8 NNW 11 18 1012.9 - 0.0 - - - - - - -
28/06:30pm 18.9 NNW 13 18 1012.8 - 0.0 - - - - - - -
28/06:00pm 18.8 NNW 12 19 1012.9 - 0.0 - - - - - - -
28/05:30pm 19.0 NNW 12 19 1012.9 - 0.0 - - - - - - -
28/05:00pm 19.0 NNW 10 18 1013.0 - 0.0 - - - - - - -
28/04:30pm 19.1 NNW 10 15 1012.9 - 0.0 - - - - - - -
28/04:00pm 19.3 N 11 17 1012.6 - 0.0 - - - - - - -
28/03:30pm 19.6 N 12 19 1012.4 - 0.0 - - - - - - -
28/03:00pm 20.2 N 12 18 1012.5 - 0.0 - - - - - - -
28/02:30pm 20.4 NNW 12 18 1012.9 - 0.0 - - - - - - -
28/02:00pm 19.4 N 12 17 1013.1 - 0.0 - - - - - - -
28/01:30pm 20.4 NNW 11 17 1013.3 - 0.0 - - - - - - -
28/01:00pm 19.6 NNW 12 18 1013.6 - 0.0 - - - - - - -
28/12:30pm 20.2 NNW 13 19 1014.1 - 0.0 - - - - - - -
28/12:00pm 20.2 NNW 13 22 1014.4 - 0.0 - - - - - - -
28/11:30am 20.7 NNW 13 21 1014.4 - 0.0 - - - - - - -
28/11:00am 20.4 NNW 14 21 1014.6 - 0.0 - - - - - - -
28/10:30am 19.6 N 11 16 1014.7 - 0.0 - - - - - - -
28/10:00am 17.4 N 12 17 1015.0 - 0.0 - - - - - - -
28/09:30am 17.4 N 11 16 1014.9 - 0.0 - - - - - - -
28/09:00am 16.8 N 11 17 1015.1 - 0.0 - - - - - - -
28/08:30am 16.4 N 8 14 1015.1 - 0.0 - - - - - - -
28/08:00am 16.4 N 11 17 1015.2 - 0.0 - - - - - - -
28/07:30am 15.9 N 9 15 1014.7 - 0.0 - - - - - - -
28/07:00am 15.7 N 9 14 1014.5 - 0.0 - - - - - - -
28/06:30am 15.8 N 7 12 1014.5 - 0.0 - - - - - - -
28/06:00am 15.7 N 7 11 1014.1 - 0.0 - - - - - - -
28/05:30am 15.2 N 5 9 1014.0 - 0.0 - - - - - - -
28/05:00am 15.1 N 7 10 1014.2 - 0.0 - - - - - - -
28/04:30am 14.9 N 7 10 1014.3 - 0.0 - - - - - - -
28/04:00am 13.8 NNE 4 5 1014.4 - 0.0 - - - - - - -
28/03:30am 13.6 NE 4 5 1014.9 - 0.0 - - - - - - -
28/03:00am 14.2 NNE 5 9 1015.0 - 0.0 - - - - - - -
28/02:30am 13.8 NNE 5 6 1015.4 - 0.0 - - - - - - -
28/02:00am 13.8 NE 5 6 1015.7 - 0.0 - - - - - - -
28/01:30am 14.2 NNE 5 9 1016.1 - 0.0 - - - - - - -
28/01:00am 14.1 NNE 5 8 1016.5 - 0.0 - - - - - - -
28/12:30am 12.2 NNE 4 6 1016.8 - 0.0 - - - - - - -

Other Formats:

Comma delimited format used in spreadsheet applications
http://www.bom.gov.au/fwo/IDW60701/IDW60701.94604.axf

JavaScript Object Notation format (JSON) in row-major order
http://www.bom.gov.au/fwo/IDW60701/IDW60701.94604.json